createdAt,value
2023-03-08T00:01:18.722Z,6.40
2023-03-08T00:03:48.312Z,6.42
2023-03-08T00:06:17.754Z,6.33
2023-03-08T00:08:46.304Z,6.30
2023-03-08T00:11:14.901Z,6.29
2023-03-08T00:13:43.084Z,6.30
2023-03-08T00:16:13.922Z,6.31
2023-03-08T00:18:42.213Z,6.30
2023-03-08T00:21:14.597Z,6.20
2023-03-08T00:23:43.479Z,6.17
2023-03-08T00:26:12.047Z,6.13
2023-03-08T00:28:40.713Z,6.10
2023-03-08T00:31:10.669Z,6.08
2023-03-08T00:33:39.573Z,5.98
2023-03-08T00:36:11.597Z,5.94
2023-03-08T00:38:41.259Z,5.92
2023-03-08T00:41:09.678Z,5.87
2023-03-08T00:43:38.267Z,5.82
2023-03-08T00:46:07.095Z,5.75
2023-03-08T00:48:35.447Z,5.73
2023-03-08T00:51:03.953Z,5.69
2023-03-08T00:53:32.222Z,5.71
2023-03-08T00:56:02.244Z,5.69
2023-03-08T00:58:31.476Z,5.62
2023-03-08T01:00:59.798Z,5.62
2023-03-08T01:03:28.212Z,5.64
2023-03-08T01:05:57.986Z,5.63
2023-03-08T01:08:28.012Z,5.57
2023-03-08T01:10:58.202Z,5.60
2023-03-08T01:13:29.366Z,5.59
2023-03-08T01:15:57.579Z,5.60
2023-03-08T01:18:25.852Z,5.63
2023-03-08T01:20:59.978Z,5.49
2023-03-08T01:23:28.463Z,5.37
2023-03-08T01:26:00.691Z,5.34
2023-03-08T01:28:30.450Z,5.35
2023-03-08T01:31:03.462Z,5.44
2023-03-08T01:33:31.751Z,5.38
2023-03-08T01:35:59.991Z,5.36
2023-03-08T01:38:28.121Z,5.36
2023-03-08T01:41:00.616Z,5.41
2023-03-08T01:43:32.949Z,5.32
2023-03-08T01:46:08.973Z,5.24
2023-03-08T01:48:41.326Z,5.11
2023-03-08T01:51:13.084Z,5.03
2023-03-08T01:53:42.634Z,4.97
2023-03-08T01:56:13.429Z,4.92
2023-03-08T01:58:45.120Z,4.93
2023-03-08T02:01:13.248Z,4.90
2023-03-08T02:03:41.402Z,4.83
2023-03-08T02:06:09.840Z,4.75
2023-03-08T02:08:38.177Z,4.67
2023-03-08T02:11:06.911Z,4.64
2023-03-08T02:13:35.346Z,4.64
2023-03-08T02:16:09.079Z,4.59
2023-03-08T02:18:37.200Z,4.62
2023-03-08T02:21:05.551Z,4.63
2023-03-08T02:23:35.216Z,4.54
2023-03-08T02:26:05.627Z,4.46
2023-03-08T02:28:34.679Z,4.48
2023-03-08T02:31:02.935Z,4.40
2023-03-08T02:33:32.446Z,4.37
2023-03-08T02:36:02.150Z,4.34
2023-03-08T02:38:30.967Z,4.31
2023-03-08T02:41:00.586Z,4.29
2023-03-08T02:43:28.693Z,4.38
2023-03-08T02:45:56.900Z,4.38
2023-03-08T02:48:25.107Z,4.36
2023-03-08T02:50:53.263Z,4.30
2023-03-08T02:53:21.432Z,4.25
2023-03-08T02:55:49.557Z,4.15
2023-03-08T02:58:19.152Z,4.03
2023-03-08T03:00:47.302Z,3.97
2023-03-08T03:03:15.455Z,3.96
2023-03-08T03:05:44.401Z,3.95
2023-03-08T03:08:13.410Z,3.91
2023-03-08T03:10:42.045Z,3.89
2023-03-08T03:13:10.218Z,3.88
2023-03-08T03:15:40.997Z,3.88
2023-03-08T03:18:09.263Z,3.84
2023-03-08T03:20:37.471Z,3.80
2023-03-08T03:23:06.501Z,3.82
2023-03-08T03:25:38.378Z,3.78
2023-03-08T03:28:06.754Z,3.77
2023-03-08T03:30:34.969Z,3.84
2023-03-08T03:33:06.163Z,3.90
2023-03-08T03:35:34.394Z,3.88
2023-03-08T03:38:02.844Z,3.82
2023-03-08T03:40:31.090Z,3.78
2023-03-08T03:42:59.211Z,3.70
2023-03-08T03:45:27.399Z,3.62
2023-03-08T03:47:55.509Z,3.66
2023-03-08T03:50:25.064Z,3.70
2023-03-08T03:52:53.218Z,3.77
2023-03-08T03:55:21.496Z,3.78
2023-03-08T03:57:50.833Z,3.72
2023-03-08T04:00:19.281Z,3.90
2023-03-08T04:02:47.416Z,3.78
2023-03-08T04:05:15.727Z,3.71
2023-03-08T04:07:45.233Z,3.60
2023-03-08T04:10:13.364Z,3.53
2023-03-08T04:12:41.403Z,3.52
2023-03-08T04:15:10.388Z,3.68
2023-03-08T04:17:38.517Z,3.56
2023-03-08T04:20:07.814Z,3.50
2023-03-08T04:22:36.034Z,3.40
2023-03-08T04:25:06.022Z,3.33
2023-03-08T04:27:34.172Z,3.33
2023-03-08T04:30:03.192Z,3.33
2023-03-08T04:32:32.799Z,3.41
2023-03-08T04:35:00.994Z,3.41
2023-03-08T04:37:29.224Z,3.45
2023-03-08T04:39:57.372Z,3.38
2023-03-08T04:42:27.219Z,3.36
2023-03-08T04:44:55.558Z,3.31
2023-03-08T04:47:23.775Z,3.33
2023-03-08T04:49:52.213Z,3.36
2023-03-08T04:52:20.456Z,3.33
2023-03-08T04:54:48.742Z,3.39
2023-03-08T04:57:17.374Z,3.34
2023-03-08T04:59:47.520Z,3.45
2023-03-08T05:02:15.665Z,3.50
2023-03-08T05:04:43.950Z,3.46
2023-03-08T05:07:12.652Z,3.38
2023-03-08T05:09:42.796Z,3.36
2023-03-08T05:12:11.568Z,3.37
2023-03-08T05:14:41.293Z,3.39
2023-03-08T05:17:11.046Z,3.40
2023-03-08T05:19:39.139Z,3.44
2023-03-08T05:22:07.424Z,3.43
2023-03-08T05:24:36.177Z,3.44
2023-03-08T05:27:04.564Z,3.47
2023-03-08T05:29:35.015Z,3.54
2023-03-08T05:32:04.589Z,3.67
2023-03-08T05:34:35.418Z,3.70
2023-03-08T05:37:03.631Z,3.69
2023-03-08T05:39:31.878Z,3.73
2023-03-08T05:42:00.243Z,3.76
2023-03-08T05:44:28.755Z,3.79
2023-03-08T05:46:57.433Z,3.83
2023-03-08T05:49:25.622Z,3.92
2023-03-08T05:51:55.918Z,3.98
2023-03-08T05:54:24.534Z,4.01
2023-03-08T05:56:52.743Z,4.05
2023-03-08T05:59:20.870Z,4.10
2023-03-08T06:01:50.318Z,4.18
2023-03-08T06:04:18.707Z,4.33
2023-03-08T06:06:47.520Z,4.40
2023-03-08T06:09:18.000Z,4.58
2023-03-08T06:11:46.364Z,4.71
2023-03-08T06:14:14.482Z,4.75
2023-03-08T06:16:42.917Z,4.95
2023-03-08T06:19:11.447Z,5.13
2023-03-08T06:21:40.117Z,5.18
2023-03-08T06:24:08.509Z,5.17
2023-03-08T06:26:38.089Z,5.16
2023-03-08T06:29:06.354Z,5.29
2023-03-08T06:31:34.543Z,5.32
2023-03-08T06:34:04.022Z,5.39
2023-03-08T06:36:32.244Z,5.58
2023-03-08T06:39:01.142Z,5.68
2023-03-08T06:41:30.613Z,5.90
2023-03-08T06:44:00.295Z,6.00
2023-03-08T06:46:29.105Z,6.15
2023-03-08T06:48:57.321Z,6.17
2023-03-08T06:51:25.556Z,6.45
2023-03-08T06:53:54.256Z,6.35
2023-03-08T06:56:22.511Z,6.37
2023-03-08T06:58:50.795Z,6.50
2023-03-08T07:01:20.665Z,6.58
2023-03-08T07:03:50.191Z,6.77
2023-03-08T07:06:18.871Z,6.90
2023-03-08T07:08:47.044Z,6.89
2023-03-08T07:11:15.353Z,7.00
2023-03-08T07:13:44.549Z,7.08
2023-03-08T07:16:15.763Z,7.15
2023-03-08T07:18:45.728Z,7.29
2023-03-08T07:21:13.880Z,7.47
2023-03-08T07:23:41.994Z,7.62
2023-03-08T07:26:12.593Z,7.76
2023-03-08T07:28:40.922Z,8.00
2023-03-08T07:31:12.641Z,8.14
2023-03-08T07:33:40.754Z,8.34
2023-03-08T07:36:10.722Z,8.36
2023-03-08T07:38:40.455Z,8.47
2023-03-08T07:41:09.183Z,8.57
2023-03-08T07:43:38.320Z,8.68
2023-03-08T07:46:07.206Z,8.68
2023-03-08T07:48:35.468Z,8.72
2023-03-08T07:51:06.925Z,8.79
2023-03-08T07:53:37.144Z,8.81
2023-03-08T07:56:06.022Z,8.84
2023-03-08T07:58:34.612Z,9.06
2023-03-08T08:01:03.297Z,9.08
2023-03-08T08:03:31.562Z,9.14
2023-03-08T08:06:04.101Z,9.39
2023-03-08T08:08:32.305Z,9.51
2023-03-08T08:11:02.512Z,9.60
2023-03-08T08:13:31.105Z,9.64
2023-03-08T08:16:00.651Z,9.62
2023-03-08T08:18:29.152Z,9.70
2023-03-08T08:21:04.646Z,9.83
2023-03-08T08:23:33.615Z,9.95
2023-03-08T08:26:06.528Z,10.09
2023-03-08T08:28:34.924Z,10.25
2023-03-08T08:31:05.425Z,10.35
2023-03-08T08:33:34.971Z,10.59
2023-03-08T08:36:05.851Z,10.97
2023-03-08T08:38:34.856Z,11.01
2023-03-08T08:41:06.967Z,11.29
2023-03-08T08:43:36.896Z,11.35
2023-03-08T08:46:06.787Z,11.31
2023-03-08T08:48:55.525Z,11.48
2023-03-08T08:51:23.854Z,11.75
2023-03-08T08:53:52.874Z,11.84
2023-03-08T08:56:27.217Z,11.92
2023-03-08T08:58:56.822Z,12.17
2023-03-08T09:01:27.122Z,12.35
2023-03-08T09:03:55.492Z,12.45
2023-03-08T09:06:25.224Z,12.42
2023-03-08T09:08:55.028Z,12.48
2023-03-08T09:11:27.000Z,12.50
2023-03-08T09:13:55.889Z,12.68
2023-03-08T09:16:26.155Z,12.88
2023-03-08T09:18:56.428Z,12.88
2023-03-08T09:21:25.533Z,12.93
2023-03-08T09:23:53.757Z,13.18
2023-03-08T09:26:22.082Z,13.31
2023-03-08T09:28:51.721Z,13.37
2023-03-08T09:31:20.049Z,13.61
2023-03-08T09:33:52.131Z,13.87
2023-03-08T09:36:22.047Z,13.81
2023-03-08T09:38:52.989Z,13.93
2023-03-08T09:41:52.486Z,14.17
2023-03-08T09:44:58.702Z,14.26
2023-03-08T09:47:40.827Z,14.40
2023-03-08T09:50:22.879Z,14.61
2023-03-08T09:52:57.399Z,14.77
2023-03-08T09:55:30.657Z,15.07
2023-03-08T09:58:17.403Z,15.22
2023-03-08T10:00:47.530Z,15.48
2023-03-08T10:03:36.360Z,15.76
2023-03-08T10:06:17.979Z,15.78
2023-03-08T10:08:54.477Z,15.72
2023-03-08T10:11:31.503Z,16.03
2023-03-08T10:14:04.305Z,16.06
2023-03-08T10:16:40.630Z,16.05
2023-03-08T10:19:18.908Z,16.35
2023-03-08T10:21:48.261Z,16.43
2023-03-08T10:24:26.753Z,16.31
2023-03-08T10:27:03.043Z,16.23
2023-03-08T10:29:32.839Z,16.33
2023-03-08T10:32:03.467Z,16.56
2023-03-08T10:34:34.085Z,16.78
2023-03-08T10:37:04.741Z,16.77
2023-03-08T10:39:32.988Z,16.81
2023-03-08T10:42:03.216Z,16.97
2023-03-08T10:44:36.924Z,17.06
2023-03-08T10:47:20.757Z,17.32
2023-03-08T10:49:49.393Z,17.27
2023-03-08T10:52:25.286Z,16.81
2023-03-08T10:55:04.440Z,16.72
2023-03-08T10:57:34.106Z,17.03
2023-03-08T11:00:12.143Z,17.06
2023-03-08T11:02:41.800Z,17.02
2023-03-08T11:05:20.777Z,17.11
2023-03-08T11:07:53.482Z,17.02
2023-03-08T11:10:24.329Z,17.07
2023-03-08T11:13:03.224Z,17.00
2023-03-08T11:15:34.597Z,16.97
2023-03-08T11:18:08.750Z,16.77
2023-03-08T11:20:45.495Z,16.75
2023-03-08T11:23:21.488Z,16.74
2023-03-08T11:25:56.355Z,16.78
2023-03-08T11:28:55.667Z,16.93
2023-03-08T11:31:32.706Z,17.20
2023-03-08T11:34:25.229Z,17.21
2023-03-08T11:37:03.226Z,17.20
2023-03-08T11:39:34.725Z,17.23
2023-03-08T11:42:14.598Z,17.31
2023-03-08T11:44:56.130Z,17.46
2023-03-08T11:48:12.657Z,17.53
2023-03-08T11:50:48.984Z,17.69
2023-03-08T11:53:24.613Z,17.69
2023-03-08T11:56:30.461Z,17.65
2023-03-08T11:59:03.853Z,17.69
2023-03-08T12:01:39.030Z,17.70
2023-03-08T12:04:11.969Z,17.63
2023-03-08T12:06:43.950Z,17.70
2023-03-08T12:09:22.870Z,17.67
2023-03-08T12:11:56.555Z,17.60
2023-03-08T12:14:28.862Z,17.70
2023-03-08T12:17:05.916Z,17.64
2023-03-08T12:19:42.724Z,17.81
2023-03-08T12:22:28.448Z,17.97
2023-03-08T12:25:02.455Z,18.15
2023-03-08T12:27:37.533Z,18.30
2023-03-08T12:30:17.529Z,18.49
2023-03-08T12:32:47.560Z,18.43
2023-03-08T12:35:34.085Z,18.41
2023-03-08T12:38:05.661Z,18.51
2023-03-08T12:40:40.176Z,18.58
2023-03-08T12:43:11.754Z,18.49
2023-03-08T12:45:41.519Z,18.35
2023-03-08T12:48:19.699Z,18.38
2023-03-08T12:51:00.362Z,18.33
2023-03-08T12:53:36.480Z,18.60
2023-03-08T12:56:23.873Z,18.54
2023-03-08T12:58:55.353Z,18.47
2023-03-08T13:01:36.626Z,18.45
2023-03-08T13:04:07.017Z,18.11
2023-03-08T13:07:26.880Z,18.24
2023-03-08T13:10:03.470Z,18.41
2023-03-08T13:12:54.543Z,18.56
2023-03-08T13:15:26.395Z,18.50
2023-03-08T13:18:04.035Z,18.49
2023-03-08T13:21:02.674Z,18.47
2023-03-08T13:23:37.962Z,18.42
2023-03-08T13:26:26.887Z,18.50
2023-03-08T13:28:57.438Z,18.49
2023-03-08T13:31:30.003Z,18.53
2023-03-08T13:33:59.943Z,18.65
2023-03-08T13:36:29.465Z,18.79
2023-03-08T13:39:00.164Z,18.81
2023-03-08T13:41:40.311Z,18.95
2023-03-08T13:44:15.444Z,19.17
2023-03-08T13:46:43.887Z,19.33
2023-03-08T13:49:17.933Z,19.40
2023-03-08T13:51:50.525Z,19.49
2023-03-08T13:54:29.616Z,19.40
2023-03-08T13:57:00.563Z,19.28
2023-03-08T13:59:28.797Z,19.23
2023-03-08T14:01:57.458Z,19.13
2023-03-08T14:04:28.814Z,18.88
2023-03-08T14:06:58.735Z,18.46
2023-03-08T14:09:28.080Z,18.41
2023-03-08T14:12:02.107Z,18.44
2023-03-08T14:14:33.681Z,18.44
2023-03-08T14:17:02.711Z,18.35
2023-03-08T14:19:32.732Z,18.28
2023-03-08T14:22:03.392Z,18.31
2023-03-08T14:24:34.048Z,18.15
2023-03-08T14:27:05.795Z,18.06
2023-03-08T14:29:36.166Z,18.00
2023-03-08T14:32:07.957Z,17.91
2023-03-08T14:34:39.409Z,17.86
2023-03-08T14:37:15.337Z,17.82
2023-03-08T14:39:45.503Z,17.74
2023-03-08T14:42:24.006Z,17.71
2023-03-08T14:44:54.970Z,17.65
2023-03-08T14:47:25.787Z,17.58
2023-03-08T14:49:58.355Z,17.45
2023-03-08T14:52:29.040Z,17.33
2023-03-08T14:54:57.299Z,17.25
2023-03-08T14:57:30.014Z,17.25
2023-03-08T15:00:07.827Z,17.15
2023-03-08T15:02:36.960Z,17.07
2023-03-08T15:05:05.890Z,17.01
2023-03-08T15:07:37.170Z,16.93
2023-03-08T15:10:08.182Z,16.95
2023-03-08T15:12:38.249Z,16.98
2023-03-08T15:15:14.289Z,16.94
2023-03-08T15:17:42.811Z,16.94
2023-03-08T15:20:13.010Z,17.05
2023-03-08T15:22:45.468Z,16.99
2023-03-08T15:25:20.742Z,16.99
2023-03-08T15:27:50.332Z,17.10
2023-03-08T15:30:20.501Z,17.21
2023-03-08T15:32:49.197Z,17.09
2023-03-08T15:35:18.199Z,17.03
2023-03-08T15:37:46.794Z,16.96
2023-03-08T15:40:16.967Z,16.92
2023-03-08T15:42:45.367Z,16.80
2023-03-08T15:45:16.249Z,16.73
2023-03-08T15:47:45.085Z,16.62
2023-03-08T15:50:19.247Z,16.48
2023-03-08T15:52:47.421Z,16.41
2023-03-08T15:55:16.495Z,16.41
2023-03-08T15:57:44.886Z,16.24
2023-03-08T16:00:16.340Z,16.09
2023-03-08T16:02:44.975Z,15.96
2023-03-08T16:05:14.586Z,15.85
2023-03-08T16:07:43.476Z,15.79
2023-03-08T16:10:15.613Z,15.82
2023-03-08T16:12:44.015Z,15.86
2023-03-08T16:15:12.929Z,15.73
2023-03-08T16:17:42.623Z,15.69
2023-03-08T16:20:12.340Z,15.54
2023-03-08T16:22:40.834Z,15.42
2023-03-08T16:25:10.537Z,15.32
2023-03-08T16:27:39.134Z,15.23
2023-03-08T16:30:08.592Z,15.16
2023-03-08T16:32:37.473Z,15.09
2023-03-08T16:35:08.228Z,15.04
2023-03-08T16:37:36.497Z,14.99
2023-03-08T16:40:07.420Z,14.94
2023-03-08T16:42:35.970Z,14.88
2023-03-08T16:45:05.249Z,14.83
2023-03-08T16:47:33.626Z,14.77
2023-03-08T16:50:02.206Z,14.73
2023-03-08T16:52:32.069Z,14.68
2023-03-08T16:55:01.513Z,14.62
2023-03-08T16:57:29.628Z,14.57
2023-03-08T16:59:57.859Z,14.51
2023-03-08T17:02:26.075Z,14.44
2023-03-08T17:04:54.315Z,14.38
2023-03-08T17:07:22.630Z,14.31
2023-03-08T17:09:52.181Z,14.25
2023-03-08T17:12:20.257Z,14.21
2023-03-08T17:14:48.517Z,14.18
2023-03-08T17:17:17.173Z,14.16
2023-03-08T17:19:46.437Z,14.12
2023-03-08T17:22:14.636Z,14.17
2023-03-08T17:24:42.769Z,14.20
2023-03-08T17:27:12.375Z,14.20
2023-03-08T17:29:40.591Z,14.20
2023-03-08T17:32:09.304Z,14.15
2023-03-08T17:34:37.980Z,14.08
2023-03-08T17:37:11.597Z,13.99
2023-03-08T17:39:40.977Z,13.90
2023-03-08T17:42:10.290Z,13.80
2023-03-08T17:44:39.915Z,13.72
2023-03-08T17:47:08.274Z,13.70
2023-03-08T17:49:36.450Z,13.69
2023-03-08T17:52:04.751Z,13.69
2023-03-08T17:54:32.959Z,13.74
2023-03-08T17:57:01.237Z,13.79
2023-03-08T17:59:29.394Z,13.60
2023-03-08T18:01:59.030Z,13.45
2023-03-08T18:04:27.248Z,13.30
2023-03-08T18:06:55.471Z,13.18
2023-03-08T18:09:24.159Z,13.06
2023-03-08T18:11:52.236Z,12.98
2023-03-08T18:14:24.361Z,12.98
2023-03-08T18:16:56.604Z,13.00
2023-03-08T18:19:26.313Z,13.00
2023-03-08T18:21:57.429Z,13.02
2023-03-08T18:24:26.750Z,12.92
2023-03-08T18:26:55.192Z,12.80
2023-03-08T18:29:23.465Z,12.68
2023-03-08T18:31:53.010Z,12.60
2023-03-08T18:34:21.247Z,12.52
2023-03-08T18:36:51.172Z,12.42
2023-03-08T18:39:19.410Z,12.33
2023-03-08T18:41:47.940Z,12.26
2023-03-08T18:44:16.150Z,12.21
2023-03-08T18:46:44.326Z,12.14
2023-03-08T18:49:13.965Z,12.10
2023-03-08T18:51:43.538Z,12.05
2023-03-08T18:54:17.386Z,12.04
2023-03-08T18:56:45.994Z,12.10
2023-03-08T18:59:15.343Z,12.11
2023-03-08T19:01:44.687Z,12.05
2023-03-08T19:04:13.142Z,12.10
2023-03-08T19:06:41.538Z,12.40
2023-03-08T19:09:13.341Z,12.39
2023-03-08T19:11:41.869Z,12.29
2023-03-08T19:14:12.373Z,12.19
2023-03-08T19:16:40.972Z,12.17
2023-03-08T19:19:11.398Z,12.04
2023-03-08T19:21:41.451Z,12.08
2023-03-08T19:24:10.296Z,11.99
2023-03-08T19:26:41.482Z,11.93
2023-03-08T19:29:13.730Z,11.83
2023-03-08T19:31:43.967Z,11.71
2023-03-08T19:34:13.340Z,11.68
2023-03-08T19:36:42.980Z,11.68
2023-03-08T19:39:14.649Z,11.61
2023-03-08T19:41:44.611Z,11.56
2023-03-08T19:44:12.799Z,11.59
2023-03-08T19:46:41.751Z,11.52
2023-03-08T19:49:12.743Z,11.46
2023-03-08T19:51:41.391Z,11.38
2023-03-08T19:54:10.144Z,11.29
2023-03-08T19:56:39.084Z,11.19
2023-03-08T19:59:09.493Z,11.12
2023-03-08T20:01:38.470Z,11.05
2023-03-08T20:04:07.605Z,10.98
2023-03-08T20:06:39.144Z,10.89
2023-03-08T20:09:09.372Z,10.88
2023-03-08T20:11:37.885Z,10.94
2023-03-08T20:14:06.142Z,10.92
2023-03-08T20:16:36.084Z,10.73
2023-03-08T20:19:04.423Z,10.62
2023-03-08T20:21:32.868Z,10.54
2023-03-08T20:24:02.682Z,10.48
2023-03-08T20:26:33.734Z,10.31
2023-03-08T20:29:02.283Z,10.28
2023-03-08T20:31:31.682Z,10.35
2023-03-08T20:34:01.489Z,10.33
2023-03-08T20:36:29.742Z,10.21
2023-03-08T20:38:59.019Z,10.26
2023-03-08T20:41:30.544Z,10.09
2023-03-08T20:43:59.030Z,10.09
2023-03-08T20:46:31.205Z,10.09
2023-03-08T20:49:01.046Z,10.04
2023-03-08T20:51:29.736Z,10.01
2023-03-08T20:53:58.351Z,10.02
2023-03-08T20:56:27.519Z,9.98
2023-03-08T20:59:00.534Z,9.99
2023-03-08T21:01:31.728Z,9.98
2023-03-08T21:04:01.501Z,10.01
2023-03-08T21:06:34.223Z,9.97
2023-03-08T21:09:04.935Z,10.00
2023-03-08T21:11:34.853Z,10.04
2023-03-08T21:14:04.501Z,10.11
2023-03-08T21:16:33.980Z,10.07
2023-03-08T21:19:04.790Z,9.93
2023-03-08T21:21:35.702Z,9.77
2023-03-08T21:24:06.991Z,9.74
2023-03-08T21:26:35.809Z,9.76
2023-03-08T21:29:06.390Z,9.77
2023-03-08T21:31:36.800Z,9.80
2023-03-08T21:34:08.805Z,9.96
2023-03-08T21:36:38.899Z,10.08
2023-03-08T21:39:09.493Z,10.25
2023-03-08T21:41:41.974Z,10.19
2023-03-08T21:44:13.463Z,10.18
2023-03-08T21:46:42.713Z,10.29
2023-03-08T21:49:17.264Z,10.40
2023-03-08T21:51:45.745Z,10.48
2023-03-08T21:54:14.703Z,10.39
2023-03-08T21:56:42.908Z,10.44
2023-03-08T21:59:11.268Z,10.48
2023-03-08T22:01:39.473Z,10.54
2023-03-08T22:04:07.863Z,10.53
2023-03-08T22:06:37.370Z,10.56
2023-03-08T22:09:06.056Z,10.45
2023-03-08T22:11:35.223Z,10.37
2023-03-08T22:14:03.631Z,10.43
2023-03-08T22:16:32.769Z,10.23
2023-03-08T22:19:03.528Z,10.26
2023-03-08T22:21:32.705Z,10.33
2023-03-08T22:24:03.594Z,10.35
2023-03-08T22:26:32.688Z,10.22
2023-03-08T22:29:01.221Z,10.23
2023-03-08T22:31:30.993Z,10.33
2023-03-08T22:34:01.539Z,10.32
2023-03-08T22:36:29.881Z,10.19
2023-03-08T22:38:58.076Z,10.13
2023-03-08T22:41:29.029Z,10.21
2023-03-08T22:43:57.456Z,10.19
2023-03-08T22:46:27.819Z,10.12
2023-03-08T22:48:57.741Z,10.05
2023-03-08T22:51:27.736Z,10.09
2023-03-08T22:53:56.169Z,10.03
2023-03-08T22:56:29.737Z,10.04
2023-03-08T22:59:00.375Z,9.96
2023-03-08T23:01:30.110Z,9.88
2023-03-08T23:03:59.783Z,9.96
2023-03-08T23:06:29.710Z,10.01
2023-03-08T23:08:58.988Z,9.79
2023-03-08T23:11:29.244Z,9.93
2023-03-08T23:13:57.402Z,9.87
2023-03-08T23:16:26.105Z,9.87
2023-03-08T23:18:55.148Z,9.75
2023-03-08T23:21:26.720Z,9.91
2023-03-08T23:23:54.988Z,9.93
2023-03-08T23:26:27.031Z,10.01
2023-03-08T23:28:57.991Z,9.95
2023-03-08T23:31:28.110Z,10.01
2023-03-08T23:33:57.208Z,9.97
2023-03-08T23:36:26.903Z,9.97
2023-03-08T23:38:56.043Z,9.81
2023-03-08T23:41:24.572Z,9.91
2023-03-08T23:43:57.840Z,9.91
2023-03-08T23:46:26.905Z,9.88
2023-03-08T23:48:58.042Z,9.78
2023-03-08T23:51:28.252Z,9.78
2023-03-08T23:53:59.291Z,9.82
2023-03-08T23:56:30.933Z,9.82
2023-03-08T23:59:02.843Z,9.68
